sensor_id;sensor_type;location;lat;lon;timestamp;temperature;humidity
71436;SHT31;59251;51.326;12.370;2023-11-21T00:02:25;10.77;84.00
71436;SHT31;59251;51.326;12.370;2023-11-21T00:04:52;10.73;83.82
71436;SHT31;59251;51.326;12.370;2023-11-21T00:07:20;10.66;84.23
71436;SHT31;59251;51.326;12.370;2023-11-21T00:09:47;10.68;83.77
71436;SHT31;59251;51.326;12.370;2023-11-21T00:12:14;10.73;83.54
71436;SHT31;59251;51.326;12.370;2023-11-21T00:14:41;10.66;84.12
71436;SHT31;59251;51.326;12.370;2023-11-21T00:17:08;10.63;84.12
71436;SHT31;59251;51.326;12.370;2023-11-21T00:19:35;10.53;83.93
71436;SHT31;59251;51.326;12.370;2023-11-21T00:22:02;10.52;84.26
71436;SHT31;59251;51.326;12.370;2023-11-21T00:24:30;10.42;84.51
71436;SHT31;59251;51.326;12.370;2023-11-21T00:26:57;10.49;84.28
71436;SHT31;59251;51.326;12.370;2023-11-21T00:29:24;10.42;84.14
71436;SHT31;59251;51.326;12.370;2023-11-21T00:31:52;10.38;84.60
71436;SHT31;59251;51.326;12.370;2023-11-21T00:34:18;10.25;84.79
71436;SHT31;59251;51.326;12.370;2023-11-21T00:36:45;10.41;84.25
71436;SHT31;59251;51.326;12.370;2023-11-21T00:39:12;10.22;84.82
71436;SHT31;59251;51.326;12.370;2023-11-21T00:41:40;10.40;84.30
71436;SHT31;59251;51.326;12.370;2023-11-21T00:44:07;10.38;84.18
71436;SHT31;59251;51.326;12.370;2023-11-21T00:46:34;10.35;84.48
71436;SHT31;59251;51.326;12.370;2023-11-21T00:49:01;10.32;84.52
71436;SHT31;59251;51.326;12.370;2023-11-21T00:51:29;10.38;84.33
71436;SHT31;59251;51.326;12.370;2023-11-21T00:53:56;10.40;84.36
71436;SHT31;59251;51.326;12.370;2023-11-21T00:56:23;10.34;84.39
71436;SHT31;59251;51.326;12.370;2023-11-21T00:58:51;10.27;84.38
71436;SHT31;59251;51.326;12.370;2023-11-21T01:01:19;10.27;84.35
71436;SHT31;59251;51.326;12.370;2023-11-21T01:03:46;10.15;84.50
71436;SHT31;59251;51.326;12.370;2023-11-21T01:06:13;10.20;84.53
71436;SHT31;59251;51.326;12.370;2023-11-21T01:08:41;10.18;84.39
71436;SHT31;59251;51.326;12.370;2023-11-21T01:11:09;10.31;84.32
71436;SHT31;59251;51.326;12.370;2023-11-21T01:13:37;10.25;83.94
71436;SHT31;59251;51.326;12.370;2023-11-21T01:16:06;10.05;84.44
71436;SHT31;59251;51.326;12.370;2023-11-21T01:18:34;10.11;84.82
71436;SHT31;59251;51.326;12.370;2023-11-21T01:21:01;10.34;84.23
71436;SHT31;59251;51.326;12.370;2023-11-21T01:23:28;10.17;84.58
71436;SHT31;59251;51.326;12.370;2023-11-21T01:25:56;10.32;84.27
71436;SHT31;59251;51.326;12.370;2023-11-21T01:28:23;10.37;84.65
71436;SHT31;59251;51.326;12.370;2023-11-21T01:30:49;10.46;84.26
71436;SHT31;59251;51.326;12.370;2023-11-21T01:33:18;10.61;84.17
71436;SHT31;59251;51.326;12.370;2023-11-21T01:35:45;10.59;83.70
71436;SHT31;59251;51.326;12.370;2023-11-21T01:38:12;10.53;83.81
71436;SHT31;59251;51.326;12.370;2023-11-21T01:40:39;10.68;83.97
71436;SHT31;59251;51.326;12.370;2023-11-21T01:43:06;10.70;83.45
71436;SHT31;59251;51.326;12.370;2023-11-21T01:45:34;10.73;83.32
71436;SHT31;59251;51.326;12.370;2023-11-21T01:48:00;10.79;83.21
71436;SHT31;59251;51.326;12.370;2023-11-21T01:50:29;10.77;82.94
71436;SHT31;59251;51.326;12.370;2023-11-21T01:52:57;10.79;82.96
71436;SHT31;59251;51.326;12.370;2023-11-21T01:55:24;10.73;82.47
71436;SHT31;59251;51.326;12.370;2023-11-21T01:57:53;10.77;82.78
71436;SHT31;59251;51.326;12.370;2023-11-21T02:00:20;10.75;82.69
71436;SHT31;59251;51.326;12.370;2023-11-21T02:02:49;10.92;82.29
71436;SHT31;59251;51.326;12.370;2023-11-21T02:05:16;10.99;82.09
71436;SHT31;59251;51.326;12.370;2023-11-21T02:07:46;11.00;81.87
71436;SHT31;59251;51.326;12.370;2023-11-21T02:10:14;10.80;82.29
71436;SHT31;59251;51.326;12.370;2023-11-21T02:12:41;10.99;81.82
71436;SHT31;59251;51.326;12.370;2023-11-21T02:15:10;11.21;81.32
71436;SHT31;59251;51.326;12.370;2023-11-21T02:17:41;11.16;81.26
71436;SHT31;59251;51.326;12.370;2023-11-21T02:20:10;11.55;80.50
71436;SHT31;59251;51.326;12.370;2023-11-21T02:22:42;11.42;80.87
71436;SHT31;59251;51.326;12.370;2023-11-21T02:25:10;11.42;80.71
71436;SHT31;59251;51.326;12.370;2023-11-21T02:27:37;11.59;80.54
71436;SHT31;59251;51.326;12.370;2023-11-21T02:30:05;11.54;80.34
71436;SHT31;59251;51.326;12.370;2023-11-21T02:32:33;11.96;79.66
71436;SHT31;59251;51.326;12.370;2023-11-21T02:35:00;12.24;78.44
71436;SHT31;59251;51.326;12.370;2023-11-21T02:37:33;11.50;79.86
71436;SHT31;59251;51.326;12.370;2023-11-21T02:40:00;11.72;80.04
71436;SHT31;59251;51.326;12.370;2023-11-21T02:42:30;11.61;79.97
71436;SHT31;59251;51.326;12.370;2023-11-21T02:44:57;11.50;80.71
71436;SHT31;59251;51.326;12.370;2023-11-21T02:47:24;11.50;80.45
71436;SHT31;59251;51.326;12.370;2023-11-21T02:49:50;11.37;81.00
71436;SHT31;59251;51.326;12.370;2023-11-21T02:52:17;11.34;80.97
71436;SHT31;59251;51.326;12.370;2023-11-21T02:54:44;11.47;80.61
71436;SHT31;59251;51.326;12.370;2023-11-21T02:57:11;11.52;80.23
71436;SHT31;59251;51.326;12.370;2023-11-21T02:59:40;11.35;80.37
71436;SHT31;59251;51.326;12.370;2023-11-21T03:02:06;11.14;81.22
71436;SHT31;59251;51.326;12.370;2023-11-21T03:04:34;11.03;81.54
71436;SHT31;59251;51.326;12.370;2023-11-21T03:07:01;10.93;81.71
71436;SHT31;59251;51.326;12.370;2023-11-21T03:09:28;10.82;82.38
71436;SHT31;59251;51.326;12.370;2023-11-21T03:11:54;11.00;81.96
71436;SHT31;59251;51.326;12.370;2023-11-21T03:14:21;11.01;81.78
71436;SHT31;59251;51.326;12.370;2023-11-21T03:16:49;10.90;81.78
71436;SHT31;59251;51.326;12.370;2023-11-21T03:19:16;10.90;81.67
71436;SHT31;59251;51.326;12.370;2023-11-21T03:21:43;11.04;81.38
71436;SHT31;59251;51.326;12.370;2023-11-21T03:24:09;10.96;81.61
71436;SHT31;59251;51.326;12.370;2023-11-21T03:26:36;10.89;81.80
71436;SHT31;59251;51.326;12.370;2023-11-21T03:29:04;10.95;81.63
71436;SHT31;59251;51.326;12.370;2023-11-21T03:31:31;11.07;81.39
71436;SHT31;59251;51.326;12.370;2023-11-21T03:33:59;11.13;81.04
71436;SHT31;59251;51.326;12.370;2023-11-21T03:36:26;10.99;81.48
71436;SHT31;59251;51.326;12.370;2023-11-21T03:38:52;11.06;81.32
71436;SHT31;59251;51.326;12.370;2023-11-21T03:41:20;11.01;81.40
71436;SHT31;59251;51.326;12.370;2023-11-21T03:43:47;11.09;81.06
71436;SHT31;59251;51.326;12.370;2023-11-21T03:46:14;11.27;80.68
71436;SHT31;59251;51.326;12.370;2023-11-21T03:48:42;11.31;80.64
71436;SHT31;59251;51.326;12.370;2023-11-21T03:51:10;11.14;80.67
71436;SHT31;59251;51.326;12.370;2023-11-21T03:53:36;11.23;80.66
71436;SHT31;59251;51.326;12.370;2023-11-21T03:56:04;11.32;80.09
71436;SHT31;59251;51.326;12.370;2023-11-21T03:58:32;11.38;80.18
71436;SHT31;59251;51.326;12.370;2023-11-21T04:00:59;11.38;80.23
71436;SHT31;59251;51.326;12.370;2023-11-21T04:03:27;11.52;80.13
71436;SHT31;59251;51.326;12.370;2023-11-21T04:05:53;11.45;80.20
71436;SHT31;59251;51.326;12.370;2023-11-21T04:08:21;11.58;80.18
71436;SHT31;59251;51.326;12.370;2023-11-21T04:10:48;11.42;80.42
71436;SHT31;59251;51.326;12.370;2023-11-21T04:13:15;11.42;80.30
71436;SHT31;59251;51.326;12.370;2023-11-21T04:15:41;11.55;79.99
71436;SHT31;59251;51.326;12.370;2023-11-21T04:18:08;11.54;79.96
71436;SHT31;59251;51.326;12.370;2023-11-21T04:20:35;11.44;80.27
71436;SHT31;59251;51.326;12.370;2023-11-21T04:23:02;11.26;80.40
71436;SHT31;59251;51.326;12.370;2023-11-21T04:25:30;11.45;80.47
71436;SHT31;59251;51.326;12.370;2023-11-21T04:27:57;11.45;80.29
71436;SHT31;59251;51.326;12.370;2023-11-21T04:30:24;11.59;79.97
71436;SHT31;59251;51.326;12.370;2023-11-21T04:32:50;11.48;80.39
71436;SHT31;59251;51.326;12.370;2023-11-21T04:35:17;11.51;80.18
71436;SHT31;59251;51.326;12.370;2023-11-21T04:37:44;11.54;80.00
71436;SHT31;59251;51.326;12.370;2023-11-21T04:40:11;11.62;79.82
71436;SHT31;59251;51.326;12.370;2023-11-21T04:42:39;11.69;79.66
71436;SHT31;59251;51.326;12.370;2023-11-21T04:45:07;11.76;79.52
71436;SHT31;59251;51.326;12.370;2023-11-21T04:47:36;11.48;80.11
71436;SHT31;59251;51.326;12.370;2023-11-21T04:50:04;11.54;80.15
71436;SHT31;59251;51.326;12.370;2023-11-21T04:52:32;11.68;80.11
71436;SHT31;59251;51.326;12.370;2023-11-21T04:54:59;11.76;79.67
71436;SHT31;59251;51.326;12.370;2023-11-21T04:57:27;11.61;79.88
71436;SHT31;59251;51.326;12.370;2023-11-21T04:59:55;11.68;79.71
71436;SHT31;59251;51.326;12.370;2023-11-21T05:02:22;11.51;79.90
71436;SHT31;59251;51.326;12.370;2023-11-21T05:04:48;11.59;79.94
71436;SHT31;59251;51.326;12.370;2023-11-21T05:07:15;11.47;80.24
71436;SHT31;59251;51.326;12.370;2023-11-21T05:09:42;11.48;80.05
71436;SHT31;59251;51.326;12.370;2023-11-21T05:12:11;11.61;79.86
71436;SHT31;59251;51.326;12.370;2023-11-21T05:14:38;11.59;79.86
71436;SHT31;59251;51.326;12.370;2023-11-21T05:17:06;11.52;79.91
71436;SHT31;59251;51.326;12.370;2023-11-21T05:19:33;11.47;80.13
71436;SHT31;59251;51.326;12.370;2023-11-21T05:22:01;11.38;80.06
71436;SHT31;59251;51.326;12.370;2023-11-21T05:24:28;11.51;80.11
71436;SHT31;59251;51.326;12.370;2023-11-21T05:26:54;11.18;80.62
71436;SHT31;59251;51.326;12.370;2023-11-21T05:29:22;11.38;80.63
71436;SHT31;59251;51.326;12.370;2023-11-21T05:31:48;11.59;80.46
71436;SHT31;59251;51.326;12.370;2023-11-21T05:34:17;11.58;80.52
71436;SHT31;59251;51.326;12.370;2023-11-21T05:36:43;11.66;80.40
71436;SHT31;59251;51.326;12.370;2023-11-21T05:39:11;11.45;80.69
71436;SHT31;59251;51.326;12.370;2023-11-21T05:41:37;11.52;81.02
71436;SHT31;59251;51.326;12.370;2023-11-21T05:44:04;11.41;81.28
71436;SHT31;59251;51.326;12.370;2023-11-21T05:46:31;11.18;81.63
71436;SHT31;59251;51.326;12.370;2023-11-21T05:48:58;11.34;81.40
71436;SHT31;59251;51.326;12.370;2023-11-21T05:51:26;11.24;81.79
71436;SHT31;59251;51.326;12.370;2023-11-21T05:53:53;11.32;81.80
71436;SHT31;59251;51.326;12.370;2023-11-21T05:56:19;11.11;81.85
71436;SHT31;59251;51.326;12.370;2023-11-21T05:58:46;11.37;81.55
71436;SHT31;59251;51.326;12.370;2023-11-21T06:01:13;11.47;81.41
71436;SHT31;59251;51.326;12.370;2023-11-21T06:03:40;10.93;82.73
71436;SHT31;59251;51.326;12.370;2023-11-21T06:06:07;11.20;82.48
71436;SHT31;59251;51.326;12.370;2023-11-21T06:08:35;11.17;82.20
71436;SHT31;59251;51.326;12.370;2023-11-21T06:11:02;11.18;82.46
71436;SHT31;59251;51.326;12.370;2023-11-21T06:13:29;11.21;82.73
71436;SHT31;59251;51.326;12.370;2023-11-21T06:15:56;11.28;82.43
71436;SHT31;59251;51.326;12.370;2023-11-21T06:18:23;11.30;82.67
71436;SHT31;59251;51.326;12.370;2023-11-21T06:20:49;11.23;82.78
71436;SHT31;59251;51.326;12.370;2023-11-21T06:23:18;11.27;82.78
71436;SHT31;59251;51.326;12.370;2023-11-21T06:25:46;11.14;83.27
71436;SHT31;59251;51.326;12.370;2023-11-21T06:28:13;11.14;83.30
71436;SHT31;59251;51.326;12.370;2023-11-21T06:30:42;11.11;83.26
71436;SHT31;59251;51.326;12.370;2023-11-21T06:33:09;11.21;83.34
71436;SHT31;59251;51.326;12.370;2023-11-21T06:35:36;11.04;83.84
71436;SHT31;59251;51.326;12.370;2023-11-21T06:38:03;10.86;84.16
71436;SHT31;59251;51.326;12.370;2023-11-21T06:40:30;10.92;84.22
71436;SHT31;59251;51.326;12.370;2023-11-21T06:43:00;11.04;84.09
71436;SHT31;59251;51.326;12.370;2023-11-21T06:45:27;11.10;84.32
71436;SHT31;59251;51.326;12.370;2023-11-21T06:47:54;11.06;84.10
71436;SHT31;59251;51.326;12.370;2023-11-21T06:50:20;11.03;84.31
71436;SHT31;59251;51.326;12.370;2023-11-21T06:52:47;10.96;84.91
71436;SHT31;59251;51.326;12.370;2023-11-21T06:55:14;11.11;84.41
71436;SHT31;59251;51.326;12.370;2023-11-21T06:57:41;11.18;84.36
71436;SHT31;59251;51.326;12.370;2023-11-21T07:00:10;11.04;84.81
71436;SHT31;59251;51.326;12.370;2023-11-21T07:02:37;10.72;85.70
71436;SHT31;59251;51.326;12.370;2023-11-21T07:05:05;10.88;85.35
71436;SHT31;59251;51.326;12.370;2023-11-21T07:07:32;10.68;86.42
71436;SHT31;59251;51.326;12.370;2023-11-21T07:10:00;11.18;85.08
71436;SHT31;59251;51.326;12.370;2023-11-21T07:12:29;10.79;85.90
71436;SHT31;59251;51.326;12.370;2023-11-21T07:14:56;10.92;85.74
71436;SHT31;59251;51.326;12.370;2023-11-21T07:17:24;10.68;86.54
71436;SHT31;59251;51.326;12.370;2023-11-21T07:19:51;10.72;86.09
71436;SHT31;59251;51.326;12.370;2023-11-21T07:22:18;10.84;86.38
71436;SHT31;59251;51.326;12.370;2023-11-21T07:24:48;10.70;86.37
71436;SHT31;59251;51.326;12.370;2023-11-21T07:27:16;11.00;86.26
71436;SHT31;59251;51.326;12.370;2023-11-21T07:29:43;10.95;85.80
71436;SHT31;59251;51.326;12.370;2023-11-21T07:32:09;11.13;85.92
71436;SHT31;59251;51.326;12.370;2023-11-21T07:34:38;11.13;85.71
71436;SHT31;59251;51.326;12.370;2023-11-21T07:37:04;10.86;86.56
71436;SHT31;59251;51.326;12.370;2023-11-21T07:39:31;11.04;86.12
71436;SHT31;59251;51.326;12.370;2023-11-21T07:41:58;10.95;86.77
71436;SHT31;59251;51.326;12.370;2023-11-21T07:44:24;11.10;86.25
71436;SHT31;59251;51.326;12.370;2023-11-21T07:46:51;11.00;86.31
71436;SHT31;59251;51.326;12.370;2023-11-21T07:49:22;10.86;86.63
71436;SHT31;59251;51.326;12.370;2023-11-21T07:51:50;11.11;86.65
71436;SHT31;59251;51.326;12.370;2023-11-21T07:54:17;11.10;86.75
71436;SHT31;59251;51.326;12.370;2023-11-21T07:56:44;11.06;86.97
71436;SHT31;59251;51.326;12.370;2023-11-21T07:59:10;11.21;86.43
71436;SHT31;59251;51.326;12.370;2023-11-21T08:01:37;10.90;87.50
71436;SHT31;59251;51.326;12.370;2023-11-21T08:04:05;10.92;87.40
71436;SHT31;59251;51.326;12.370;2023-11-21T08:06:33;11.06;86.82
71436;SHT31;59251;51.326;12.370;2023-11-21T08:09:02;11.28;86.33
71436;SHT31;59251;51.326;12.370;2023-11-21T08:11:28;11.32;86.12
71436;SHT31;59251;51.326;12.370;2023-11-21T08:13:57;11.06;86.58
71436;SHT31;59251;51.326;12.370;2023-11-21T08:16:24;11.07;86.15
71436;SHT31;59251;51.326;12.370;2023-11-21T08:18:51;11.11;85.68
71436;SHT31;59251;51.326;12.370;2023-11-21T08:21:18;10.84;87.08
71436;SHT31;59251;51.326;12.370;2023-11-21T08:23:45;11.20;85.72
71436;SHT31;59251;51.326;12.370;2023-11-21T08:26:15;10.96;86.01
71436;SHT31;59251;51.326;12.370;2023-11-21T08:28:42;10.88;85.85
71436;SHT31;59251;51.326;12.370;2023-11-21T08:31:09;10.92;86.01
71436;SHT31;59251;51.326;12.370;2023-11-21T08:33:36;10.75;86.10
71436;SHT31;59251;51.326;12.370;2023-11-21T08:36:07;10.77;86.22
71436;SHT31;59251;51.326;12.370;2023-11-21T08:38:33;10.84;85.82
71436;SHT31;59251;51.326;12.370;2023-11-21T08:41:01;11.04;85.34
71436;SHT31;59251;51.326;12.370;2023-11-21T08:43:29;10.72;85.77
71436;SHT31;59251;51.326;12.370;2023-11-21T08:45:56;10.92;85.60
71436;SHT31;59251;51.326;12.370;2023-11-21T08:48:22;11.04;84.90
71436;SHT31;59251;51.326;12.370;2023-11-21T08:50:49;11.10;85.24
71436;SHT31;59251;51.326;12.370;2023-11-21T08:53:16;10.89;85.16
71436;SHT31;59251;51.326;12.370;2023-11-21T08:55:43;11.03;84.54
71436;SHT31;59251;51.326;12.370;2023-11-21T08:58:09;11.09;84.08
71436;SHT31;59251;51.326;12.370;2023-11-21T09:00:39;11.17;83.78
71436;SHT31;59251;51.326;12.370;2023-11-21T09:03:06;11.24;83.70
71436;SHT31;59251;51.326;12.370;2023-11-21T09:05:37;10.79;84.49
71436;SHT31;59251;51.326;12.370;2023-11-21T09:08:04;10.70;84.39
71436;SHT31;59251;51.326;12.370;2023-11-21T09:10:31;10.51;85.16
71436;SHT31;59251;51.326;12.370;2023-11-21T09:12:58;10.99;83.74
71436;SHT31;59251;51.326;12.370;2023-11-21T09:15:24;10.88;83.75
71436;SHT31;59251;51.326;12.370;2023-11-21T09:17:53;10.83;83.77
71436;SHT31;59251;51.326;12.370;2023-11-21T09:20:19;10.96;83.64
71436;SHT31;59251;51.326;12.370;2023-11-21T09:22:48;11.10;83.27
71436;SHT31;59251;51.326;12.370;2023-11-21T09:25:15;10.90;83.49
71436;SHT31;59251;51.326;12.370;2023-11-21T09:27:42;10.66;84.32
71436;SHT31;59251;51.326;12.370;2023-11-21T09:30:10;10.76;84.12
71436;SHT31;59251;51.326;12.370;2023-11-21T09:32:40;10.79;83.37
71436;SHT31;59251;51.326;12.370;2023-11-21T09:35:08;10.77;83.38
71436;SHT31;59251;51.326;12.370;2023-11-21T09:37:35;10.56;84.42
71436;SHT31;59251;51.326;12.370;2023-11-21T09:40:03;10.89;83.87
71436;SHT31;59251;51.326;12.370;2023-11-21T09:42:36;10.89;83.28
71436;SHT31;59251;51.326;12.370;2023-11-21T09:45:06;10.61;84.00
71436;SHT31;59251;51.326;12.370;2023-11-21T09:47:38;10.95;83.31
71436;SHT31;59251;51.326;12.370;2023-11-21T09:50:05;10.93;83.16
71436;SHT31;59251;51.326;12.370;2023-11-21T09:52:41;11.10;82.85
71436;SHT31;59251;51.326;12.370;2023-11-21T09:55:10;10.76;83.84
71436;SHT31;59251;51.326;12.370;2023-11-21T09:57:41;10.62;84.15
71436;SHT31;59251;51.326;12.370;2023-11-21T10:00:10;10.65;84.35
71436;SHT31;59251;51.326;12.370;2023-11-21T10:02:38;10.51;85.06
71436;SHT31;59251;51.326;12.370;2023-11-21T10:05:06;10.49;84.83
71436;SHT31;59251;51.326;12.370;2023-11-21T10:07:36;10.84;83.81
71436;SHT31;59251;51.326;12.370;2023-11-21T10:10:05;10.55;84.16
71436;SHT31;59251;51.326;12.370;2023-11-21T10:12:32;10.44;83.75
71436;SHT31;59251;51.326;12.370;2023-11-21T10:14:59;10.46;83.73
71436;SHT31;59251;51.326;12.370;2023-11-21T10:17:27;10.73;83.24
71436;SHT31;59251;51.326;12.370;2023-11-21T10:19:56;10.76;82.73
71436;SHT31;59251;51.326;12.370;2023-11-21T10:22:24;10.48;83.15
71436;SHT31;59251;51.326;12.370;2023-11-21T10:24:52;10.03;83.44
71436;SHT31;59251;51.326;12.370;2023-11-21T10:27:19;10.14;82.82
71436;SHT31;59251;51.326;12.370;2023-11-21T10:29:45;9.98;83.29
71436;SHT31;59251;51.326;12.370;2023-11-21T10:32:12;10.04;82.64
71436;SHT31;59251;51.326;12.370;2023-11-21T10:34:39;10.03;82.88
71436;SHT31;59251;51.326;12.370;2023-11-21T10:37:12;10.04;82.68
71436;SHT31;59251;51.326;12.370;2023-11-21T10:39:40;10.25;83.15
71436;SHT31;59251;51.326;12.370;2023-11-21T10:42:10;10.48;82.33
71436;SHT31;59251;51.326;12.370;2023-11-21T10:44:37;10.34;82.23
71436;SHT31;59251;51.326;12.370;2023-11-21T10:47:04;10.45;81.67
71436;SHT31;59251;51.326;12.370;2023-11-21T10:49:31;10.69;81.01
71436;SHT31;59251;51.326;12.370;2023-11-21T10:51:57;10.61;81.20
71436;SHT31;59251;51.326;12.370;2023-11-21T10:54:25;10.40;81.17
71436;SHT31;59251;51.326;12.370;2023-11-21T10:56:55;10.49;81.01
71436;SHT31;59251;51.326;12.370;2023-11-21T10:59:26;10.34;81.27
71436;SHT31;59251;51.326;12.370;2023-11-21T11:01:57;10.37;81.18
71436;SHT31;59251;51.326;12.370;2023-11-21T11:04:27;10.56;81.06
71436;SHT31;59251;51.326;12.370;2023-11-21T11:06:55;10.40;81.42
71436;SHT31;59251;51.326;12.370;2023-11-21T11:09:23;10.31;81.70
71436;SHT31;59251;51.326;12.370;2023-11-21T11:11:51;10.38;81.23
71436;SHT31;59251;51.326;12.370;2023-11-21T11:14:18;10.62;81.40
71436;SHT31;59251;51.326;12.370;2023-11-21T11:16:47;10.45;81.39
71436;SHT31;59251;51.326;12.370;2023-11-21T11:19:15;10.08;82.06
71436;SHT31;59251;51.326;12.370;2023-11-21T11:21:52;10.14;82.42
71436;SHT31;59251;51.326;12.370;2023-11-21T11:24:42;10.46;81.32
71436;SHT31;59251;51.326;12.370;2023-11-21T11:27:18;10.20;81.42
71436;SHT31;59251;51.326;12.370;2023-11-21T11:29:55;10.34;81.69
71436;SHT31;59251;51.326;12.370;2023-11-21T11:32:40;10.32;81.51
71436;SHT31;59251;51.326;12.370;2023-11-21T11:35:13;10.24;81.55
71436;SHT31;59251;51.326;12.370;2023-11-21T11:37:43;10.44;81.38
71436;SHT31;59251;51.326;12.370;2023-11-21T11:40:11;10.38;81.50
71436;SHT31;59251;51.326;12.370;2023-11-21T11:42:38;10.56;81.27
71436;SHT31;59251;51.326;12.370;2023-11-21T11:45:17;10.62;81.14
71436;SHT31;59251;51.326;12.370;2023-11-21T11:47:47;10.63;80.97
71436;SHT31;59251;51.326;12.370;2023-11-21T11:50:14;10.31;81.53
71436;SHT31;59251;51.326;12.370;2023-11-21T11:52:43;10.11;82.29
71436;SHT31;59251;51.326;12.370;2023-11-21T11:55:11;9.11;85.62
71436;SHT31;59251;51.326;12.370;2023-11-21T11:57:39;9.83;84.92
71436;SHT31;59251;51.326;12.370;2023-11-21T12:00:10;9.93;83.86
71436;SHT31;59251;51.326;12.370;2023-11-21T12:02:42;10.07;83.10
71436;SHT31;59251;51.326;12.370;2023-11-21T12:05:13;9.67;84.11
71436;SHT31;59251;51.326;12.370;2023-11-21T12:07:50;10.08;83.08
71436;SHT31;59251;51.326;12.370;2023-11-21T12:10:20;9.94;83.17
71436;SHT31;59251;51.326;12.370;2023-11-21T12:12:48;10.00;83.31
71436;SHT31;59251;51.326;12.370;2023-11-21T12:15:16;10.03;83.09
71436;SHT31;59251;51.326;12.370;2023-11-21T12:17:44;9.93;83.44
71436;SHT31;59251;51.326;12.370;2023-11-21T12:20:13;10.17;82.69
71436;SHT31;59251;51.326;12.370;2023-11-21T12:22:44;9.93;82.62
71436;SHT31;59251;51.326;12.370;2023-11-21T12:25:13;9.47;83.14
71436;SHT31;59251;51.326;12.370;2023-11-21T12:27:43;9.62;82.98
71436;SHT31;59251;51.326;12.370;2023-11-21T12:30:12;9.47;83.00
71436;SHT31;59251;51.326;12.370;2023-11-21T12:32:41;9.80;82.97
71436;SHT31;59251;51.326;12.370;2023-11-21T12:35:09;9.80;83.13
71436;SHT31;59251;51.326;12.370;2023-11-21T12:37:38;9.86;83.14
71436;SHT31;59251;51.326;12.370;2023-11-21T12:40:07;9.14;83.91
71436;SHT31;59251;51.326;12.370;2023-11-21T12:42:37;9.22;83.95
71436;SHT31;59251;51.326;12.370;2023-11-21T12:45:19;9.07;83.43
71436;SHT31;59251;51.326;12.370;2023-11-21T12:47:47;8.80;84.53
71436;SHT31;59251;51.326;12.370;2023-11-21T12:50:14;8.57;84.77
71436;SHT31;59251;51.326;12.370;2023-11-21T12:52:44;8.70;84.82
71436;SHT31;59251;51.326;12.370;2023-11-21T12:55:15;8.73;83.95
71436;SHT31;59251;51.326;12.370;2023-11-21T12:57:45;8.84;83.38
71436;SHT31;59251;51.326;12.370;2023-11-21T13:00:13;8.78;82.91
71436;SHT31;59251;51.326;12.370;2023-11-21T13:02:53;8.28;83.29
71436;SHT31;59251;51.326;12.370;2023-11-21T13:05:26;8.08;83.62
71436;SHT31;59251;51.326;12.370;2023-11-21T13:07:55;8.50;83.25
71436;SHT31;59251;51.326;12.370;2023-11-21T13:10:23;8.21;83.45
71436;SHT31;59251;51.326;12.370;2023-11-21T13:12:55;8.05;83.57
71436;SHT31;59251;51.326;12.370;2023-11-21T13:15:23;8.15;83.24
71436;SHT31;59251;51.326;12.370;2023-11-21T13:17:50;8.35;82.50
71436;SHT31;59251;51.326;12.370;2023-11-21T13:20:19;8.28;82.53
71436;SHT31;59251;51.326;12.370;2023-11-21T13:22:48;8.42;82.06
71436;SHT31;59251;51.326;12.370;2023-11-21T13:25:16;8.42;82.07
71436;SHT31;59251;51.326;12.370;2023-11-21T13:27:45;8.60;81.82
71436;SHT31;59251;51.326;12.370;2023-11-21T13:30:13;8.61;81.04
71436;SHT31;59251;51.326;12.370;2023-11-21T13:32:44;8.67;81.11
71436;SHT31;59251;51.326;12.370;2023-11-21T13:35:11;8.78;80.92
71436;SHT31;59251;51.326;12.370;2023-11-21T13:37:50;8.56;81.59
71436;SHT31;59251;51.326;12.370;2023-11-21T13:40:23;8.57;81.30
71436;SHT31;59251;51.326;12.370;2023-11-21T13:42:53;8.52;81.15
71436;SHT31;59251;51.326;12.370;2023-11-21T13:45:23;8.38;81.29
71436;SHT31;59251;51.326;12.370;2023-11-21T13:47:51;8.53;81.61
71436;SHT31;59251;51.326;12.370;2023-11-21T13:50:20;8.57;81.01
71436;SHT31;59251;51.326;12.370;2023-11-21T13:52:51;8.70;81.08
71436;SHT31;59251;51.326;12.370;2023-11-21T13:55:19;8.61;80.99
71436;SHT31;59251;51.326;12.370;2023-11-21T13:57:51;8.67;80.88
71436;SHT31;59251;51.326;12.370;2023-11-21T14:00:18;8.52;80.92
71436;SHT31;59251;51.326;12.370;2023-11-21T14:03:09;8.42;80.77
71436;SHT31;59251;51.326;12.370;2023-11-21T14:05:44;8.70;80.71
71436;SHT31;59251;51.326;12.370;2023-11-21T14:08:12;8.77;80.54
71436;SHT31;59251;51.326;12.370;2023-11-21T14:10:42;9.24;79.47
71436;SHT31;59251;51.326;12.370;2023-11-21T14:13:11;8.76;79.67
71436;SHT31;59251;51.326;12.370;2023-11-21T14:15:39;8.85;80.01
71436;SHT31;59251;51.326;12.370;2023-11-21T14:18:10;8.97;79.22
71436;SHT31;59251;51.326;12.370;2023-11-21T14:20:40;8.76;79.12
71436;SHT31;59251;51.326;12.370;2023-11-21T14:23:07;8.92;79.14
71436;SHT31;59251;51.326;12.370;2023-11-21T14:25:34;8.74;79.60
71436;SHT31;59251;51.326;12.370;2023-11-21T14:28:02;8.33;80.70
71436;SHT31;59251;51.326;12.370;2023-11-21T14:30:31;8.70;80.22
71436;SHT31;59251;51.326;12.370;2023-11-21T14:33:00;8.48;79.92
71436;SHT31;59251;51.326;12.370;2023-11-21T14:35:27;8.64;79.57
71436;SHT31;59251;51.326;12.370;2023-11-21T14:37:55;8.39;79.38
71436;SHT31;59251;51.326;12.370;2023-11-21T14:40:23;8.39;78.94
71436;SHT31;59251;51.326;12.370;2023-11-21T14:42:50;8.13;79.00
71436;SHT31;59251;51.326;12.370;2023-11-21T14:45:19;8.29;78.35
71436;SHT31;59251;51.326;12.370;2023-11-21T14:47:47;8.22;79.08
71436;SHT31;59251;51.326;12.370;2023-11-21T14:50:23;8.25;78.25
71436;SHT31;59251;51.326;12.370;2023-11-21T14:53:07;8.57;77.84
71436;SHT31;59251;51.326;12.370;2023-11-21T14:55:34;8.21;78.20
71436;SHT31;59251;51.326;12.370;2023-11-21T14:58:16;8.18;78.26
71436;SHT31;59251;51.326;12.370;2023-11-21T15:00:53;8.21;78.61
71436;SHT31;59251;51.326;12.370;2023-11-21T15:03:25;8.08;78.76
71436;SHT31;59251;51.326;12.370;2023-11-21T15:06:13;8.36;78.60
71436;SHT31;59251;51.326;12.370;2023-11-21T15:08:50;8.43;78.21
71436;SHT31;59251;51.326;12.370;2023-11-21T15:11:23;8.22;78.92
71436;SHT31;59251;51.326;12.370;2023-11-21T15:13:56;8.19;78.73
71436;SHT31;59251;51.326;12.370;2023-11-21T15:16:23;8.56;78.63
71436;SHT31;59251;51.326;12.370;2023-11-21T15:18:52;8.24;78.74
71436;SHT31;59251;51.326;12.370;2023-11-21T15:21:20;8.15;78.82
71436;SHT31;59251;51.326;12.370;2023-11-21T15:23:47;8.43;78.10
71436;SHT31;59251;51.326;12.370;2023-11-21T15:26:14;8.66;78.32
71436;SHT31;59251;51.326;12.370;2023-11-21T15:28:41;8.85;77.99